createdAt,value
2023-02-11T00:04:39.750Z,-0.80
2023-02-11T00:09:42.761Z,-0.92
2023-02-11T00:14:44.314Z,-1.18
2023-02-11T00:19:49.368Z,-0.92
2023-02-11T00:24:52.391Z,-1.20
2023-02-11T00:29:54.152Z,-1.25
2023-02-11T00:34:55.810Z,-1.17
2023-02-11T00:39:58.839Z,-1.14
2023-02-11T00:45:00.470Z,-1.20
2023-02-11T00:50:02.156Z,-1.24
2023-02-11T00:55:05.746Z,-1.46
2023-02-11T01:00:09.412Z,-1.57
2023-02-11T01:05:12.196Z,-1.68
2023-02-11T01:10:15.164Z,-1.59
2023-02-11T01:15:19.165Z,-1.55
2023-02-11T01:20:23.274Z,-1.64
2023-02-11T01:25:26.306Z,-1.72
2023-02-11T01:30:27.985Z,-1.76
2023-02-11T01:35:29.615Z,-1.14
2023-02-11T01:40:32.577Z,-1.11
2023-02-11T01:46:04.423Z,-1.00
2023-02-11T01:51:10.910Z,-1.21
2023-02-11T01:56:14.966Z,-0.94
2023-02-11T02:01:21.903Z,-0.86
2023-02-11T02:06:31.163Z,-0.95
2023-02-11T02:11:34.605Z,-0.93
2023-02-11T02:16:37.143Z,-1.12
2023-02-11T02:22:07.374Z,-1.28
2023-02-11T02:27:41.147Z,-1.29
2023-02-11T02:32:50.692Z,-1.26
2023-02-11T02:38:01.437Z,-1.30
2023-02-11T02:43:04.393Z,-1.31
2023-02-11T02:48:07.464Z,-1.36
2023-02-11T02:53:24.936Z,-1.66
2023-02-11T02:58:59.264Z,-1.47
2023-02-11T03:04:11.845Z,-1.30
2023-02-11T03:09:19.144Z,-1.34
2023-02-11T03:14:24.556Z,-1.24
2023-02-11T03:19:31.966Z,-1.48
2023-02-11T03:24:36.969Z,-1.39
2023-02-11T03:29:43.384Z,-0.98
2023-02-11T03:34:49.416Z,-0.95
2023-02-11T03:39:55.524Z,-0.97
2023-02-11T03:45:03.123Z,-0.94
2023-02-11T03:50:07.643Z,-1.14
2023-02-11T03:55:13.216Z,-1.16
2023-02-11T04:00:15.663Z,-1.14
2023-02-11T04:05:18.787Z,-1.16
2023-02-11T04:10:20.569Z,-1.23
2023-02-11T04:15:22.125Z,-1.05
2023-02-11T04:20:25.119Z,-1.10
2023-02-11T04:25:26.734Z,-1.24
2023-02-11T04:30:28.763Z,-1.33
2023-02-11T04:35:31.734Z,-1.10
2023-02-11T04:40:33.428Z,-0.91
2023-02-11T04:45:35.154Z,-0.81
2023-02-11T04:50:38.077Z,-0.83
2023-02-11T04:55:39.705Z,-0.72
2023-02-11T05:00:41.273Z,-0.52
2023-02-11T05:05:44.398Z,-0.37
2023-02-11T05:10:46.394Z,-0.27
2023-02-11T05:15:48.400Z,-0.05
2023-02-11T05:20:51.459Z,0.08
2023-02-11T05:25:53.247Z,0.38
2023-02-11T05:30:55.207Z,0.34
2023-02-11T05:35:59.934Z,0.48
2023-02-11T05:41:01.898Z,0.48
2023-02-11T05:46:04.063Z,0.49
2023-02-11T05:51:07.134Z,0.36
2023-02-11T05:56:08.778Z,0.38
2023-02-11T06:01:10.374Z,0.23
2023-02-11T06:06:13.384Z,0.30
2023-02-11T06:11:15.034Z,-0.10
2023-02-11T06:16:16.759Z,-0.12
2023-02-11T06:21:19.702Z,-0.25
2023-02-11T06:26:23.227Z,-0.86
2023-02-11T06:31:25.038Z,-0.66
2023-02-11T06:36:28.150Z,-0.83
2023-02-11T06:41:29.774Z,-0.76
2023-02-11T06:46:31.488Z,-0.60
2023-02-11T06:51:34.448Z,-1.28
2023-02-11T06:56:36.119Z,-0.61
2023-02-11T07:01:37.836Z,-0.50
2023-02-11T07:06:41.129Z,-0.29
2023-02-11T07:11:42.733Z,-0.28
2023-02-11T07:16:44.280Z,-0.42
2023-02-11T07:21:47.257Z,-0.24
2023-02-11T07:26:48.926Z,-0.28
2023-02-11T07:31:50.651Z,-0.05
2023-02-11T07:36:53.576Z,0.12
2023-02-11T07:41:55.331Z,0.24
2023-02-11T07:46:56.992Z,0.21
2023-02-11T07:51:59.932Z,0.33
2023-02-11T07:57:01.523Z,0.21
2023-02-11T08:02:03.546Z,0.14
2023-02-11T08:07:06.617Z,0.68
2023-02-11T08:12:08.225Z,1.12
2023-02-11T08:17:09.822Z,1.43
2023-02-11T08:22:12.706Z,1.26
2023-02-11T08:27:14.267Z,1.68
2023-02-11T08:32:15.954Z,1.76
2023-02-11T08:37:19.065Z,1.95
2023-02-11T08:42:20.736Z,2.19
2023-02-11T08:47:22.313Z,1.52
2023-02-11T08:52:25.191Z,1.96
2023-02-11T08:57:26.713Z,2.74
2023-02-11T09:02:28.359Z,3.07
2023-02-11T09:07:31.370Z,2.86
2023-02-11T09:12:32.960Z,3.21
2023-02-11T09:17:34.508Z,2.66
2023-02-11T09:22:37.407Z,2.42
2023-02-11T09:27:38.985Z,3.07
2023-02-11T09:32:40.564Z,3.41
2023-02-11T09:37:43.441Z,3.80
2023-02-11T09:42:50.635Z,4.63
2023-02-11T09:47:56.679Z,4.37
2023-02-11T09:53:02.354Z,4.54
2023-02-11T09:58:07.692Z,5.03
2023-02-11T10:03:51.950Z,4.98
2023-02-11T10:09:04.595Z,5.14
2023-02-11T10:14:21.710Z,4.62
2023-02-11T10:19:43.233Z,4.24
2023-02-11T10:24:52.102Z,3.95
2023-02-11T10:29:58.952Z,3.58
2023-02-11T10:35:03.498Z,3.84
2023-02-11T10:40:13.609Z,4.19
2023-02-11T10:45:19.557Z,4.06
2023-02-11T10:50:24.890Z,3.97
2023-02-11T10:55:28.084Z,4.40
2023-02-11T11:00:35.082Z,4.51
2023-02-11T11:05:45.595Z,5.05
2023-02-11T11:11:01.013Z,5.19
2023-02-11T11:16:25.025Z,5.32
2023-02-11T11:21:40.545Z,4.96
2023-02-11T11:26:46.545Z,5.17
2023-02-11T11:31:52.844Z,5.05
2023-02-11T11:37:09.998Z,5.59
2023-02-11T11:42:26.193Z,5.37
2023-02-11T11:47:36.088Z,5.71
2023-02-11T11:52:43.746Z,5.50
2023-02-11T11:57:46.548Z,5.83
2023-02-11T12:03:33.299Z,5.98
2023-02-11T12:08:44.082Z,5.70
2023-02-11T12:14:03.754Z,6.03
2023-02-11T12:19:30.290Z,5.87
2023-02-11T12:24:53.250Z,6.04
2023-02-11T12:30:07.312Z,5.69
2023-02-11T12:35:23.790Z,6.14
2023-02-11T12:40:34.271Z,6.25
2023-02-11T12:45:53.758Z,6.07
2023-02-11T12:51:02.776Z,6.56
2023-02-11T12:56:10.386Z,6.20
2023-02-11T13:01:20.563Z,6.02
2023-02-11T13:06:28.256Z,5.78
2023-02-11T13:11:37.487Z,6.04
2023-02-11T13:16:42.927Z,5.82
2023-02-11T13:22:02.979Z,5.76
2023-02-11T13:27:15.067Z,5.61
2023-02-11T13:32:18.043Z,5.79
2023-02-11T13:37:22.598Z,5.64
2023-02-11T13:42:24.417Z,5.67
2023-02-11T13:47:30.101Z,5.75
2023-02-11T13:52:34.876Z,5.76
2023-02-11T13:57:39.523Z,5.81
2023-02-11T14:02:42.572Z,6.02
2023-02-11T14:08:13.514Z,6.04
2023-02-11T14:13:23.674Z,6.06
2023-02-11T14:18:54.551Z,6.12
2023-02-11T14:24:33.412Z,6.17
2023-02-11T14:29:42.010Z,6.18
2023-02-11T14:34:53.604Z,5.97
2023-02-11T14:40:02.664Z,5.96
2023-02-11T14:45:07.619Z,6.06
2023-02-11T14:50:17.805Z,6.05
2023-02-11T14:55:29.413Z,6.32
2023-02-11T15:00:31.163Z,6.00
2023-02-11T15:05:34.985Z,6.39
2023-02-11T15:10:42.521Z,6.39
2023-02-11T15:15:45.391Z,6.28
2023-02-11T15:20:49.365Z,6.61
2023-02-11T15:25:51.218Z,6.40
2023-02-11T15:31:01.248Z,5.90
2023-02-11T15:36:05.149Z,5.01
2023-02-11T15:41:07.288Z,4.76
2023-02-11T15:46:10.415Z,5.22
2023-02-11T15:51:21.038Z,5.72
2023-02-11T15:56:25.196Z,5.88
2023-02-11T16:01:34.062Z,6.01
2023-02-11T16:06:39.770Z,6.07
2023-02-11T16:11:54.826Z,5.69
2023-02-11T16:16:59.381Z,5.40
2023-02-11T16:22:08.581Z,4.83
2023-02-11T16:27:21.256Z,4.30
2023-02-11T16:32:24.547Z,4.03
2023-02-11T16:37:27.604Z,3.35
2023-02-11T16:42:29.356Z,3.31
2023-02-11T16:47:31.487Z,3.53
2023-02-11T16:52:36.319Z,2.94
2023-02-11T16:57:38.016Z,3.11
2023-02-11T17:02:39.729Z,3.10
2023-02-11T17:07:42.648Z,3.18
2023-02-11T17:12:44.370Z,3.58
2023-02-11T17:17:45.967Z,3.76
2023-02-11T17:22:49.183Z,3.57
2023-02-11T17:27:52.849Z,3.81
2023-02-11T17:32:54.594Z,3.79
2023-02-11T17:37:57.507Z,4.02
2023-02-11T17:42:59.182Z,4.16
2023-02-11T17:48:01.017Z,4.29
2023-02-11T17:53:04.035Z,4.20
2023-02-11T17:58:05.760Z,4.15
2023-02-11T18:03:07.347Z,3.84
2023-02-11T18:08:10.380Z,4.26
2023-02-11T18:13:11.954Z,4.38
2023-02-11T18:18:13.829Z,4.21
2023-02-11T18:23:16.908Z,3.98
2023-02-11T18:28:18.657Z,3.71
2023-02-11T18:33:20.315Z,3.66
2023-02-11T18:38:24.108Z,3.88
2023-02-11T18:43:25.729Z,3.97
2023-02-11T18:48:28.030Z,3.63
2023-02-11T18:53:30.903Z,3.68
2023-02-11T18:58:32.543Z,4.03
2023-02-11T19:03:34.133Z,4.22
2023-02-11T19:08:37.043Z,4.34
2023-02-11T19:13:39.080Z,4.27
2023-02-11T19:18:41.738Z,4.54
2023-02-11T19:23:44.680Z,4.53
2023-02-11T19:28:46.276Z,4.58
2023-02-11T19:33:47.881Z,4.56
2023-02-11T19:38:50.833Z,4.34
2023-02-11T19:43:52.452Z,4.41
2023-02-11T19:48:56.885Z,4.50
2023-02-11T19:54:00.431Z,4.48
2023-02-11T19:59:02.706Z,4.30
2023-02-11T20:04:04.452Z,4.13
2023-02-11T20:09:09.184Z,4.18
2023-02-11T20:14:12.955Z,4.26
2023-02-11T20:19:14.644Z,4.03
2023-02-11T20:24:18.497Z,4.00
2023-02-11T20:29:20.575Z,3.95
2023-02-11T20:34:22.530Z,4.02
2023-02-11T20:39:25.736Z,4.04
2023-02-11T20:44:27.300Z,3.96
2023-02-11T20:49:29.282Z,3.94
2023-02-11T20:54:32.228Z,3.72
2023-02-11T20:59:33.857Z,3.84
2023-02-11T21:04:35.476Z,3.89
2023-02-11T21:09:38.470Z,3.68
2023-02-11T21:14:40.120Z,3.57
2023-02-11T21:19:42.239Z,3.84
2023-02-11T21:24:45.186Z,3.76
2023-02-11T21:29:54.078Z,3.67
2023-02-11T21:34:56.300Z,3.57
2023-02-11T21:39:59.192Z,3.55
2023-02-11T21:45:00.766Z,3.56
2023-02-11T21:50:02.428Z,3.83
2023-02-11T21:55:06.206Z,3.45
2023-02-11T22:00:10.112Z,3.27
2023-02-11T22:05:11.757Z,3.37
2023-02-11T22:10:14.719Z,3.26
2023-02-11T22:15:16.503Z,3.01
2023-02-11T22:20:18.192Z,2.94
2023-02-11T22:25:21.142Z,2.66
2023-02-11T22:30:22.701Z,3.07
2023-02-11T22:35:24.287Z,3.14
2023-02-11T22:40:27.441Z,3.21
2023-02-11T22:45:29.043Z,2.83
2023-02-11T22:50:30.627Z,2.44
2023-02-11T22:55:36.447Z,2.52
2023-02-11T23:00:40.587Z,2.48
2023-02-11T23:05:42.429Z,2.56
2023-02-11T23:10:45.441Z,2.68
2023-02-11T23:15:47.938Z,2.41
2023-02-11T23:20:49.535Z,2.11
2023-02-11T23:25:52.412Z,2.35
2023-02-11T23:30:54.458Z,2.24
2023-02-11T23:35:56.271Z,2.24
2023-02-11T23:40:59.395Z,2.17
2023-02-11T23:46:01.066Z,2.64
2023-02-11T23:51:03.363Z,2.80
2023-02-11T23:56:13.780Z,2.76
